createdAt,value
2019-05-18T00:00:37.458Z,8.00
2019-05-18T00:01:37.446Z,8.00
2019-05-18T00:02:37.456Z,8.00
2019-05-18T00:03:37.448Z,8.00
2019-05-18T00:04:37.468Z,8.00
2019-05-18T00:05:37.458Z,8.00
2019-05-18T00:06:37.388Z,12.00
2019-05-18T00:07:37.390Z,12.00
2019-05-18T00:08:37.367Z,12.00
2019-05-18T00:09:37.380Z,12.00
2019-05-18T00:10:37.371Z,12.00
2019-05-18T00:11:37.380Z,12.00
2019-05-18T00:12:37.336Z,12.00
2019-05-18T00:13:37.327Z,8.00
2019-05-18T00:14:37.314Z,8.00
2019-05-18T00:15:37.303Z,8.00
2019-05-18T00:16:37.306Z,12.00
2019-05-18T00:17:37.340Z,12.00
2019-05-18T00:18:37.277Z,12.00
2019-05-18T00:19:37.292Z,8.00
2019-05-18T00:20:37.235Z,8.00
2019-05-18T00:21:37.232Z,8.00
2019-05-18T00:22:37.239Z,12.00
2019-05-18T00:23:48.487Z,12.00
2019-05-18T00:24:37.209Z,8.00
2019-05-18T00:25:37.186Z,8.00
2019-05-18T00:26:37.212Z,12.00
2019-05-18T00:27:37.178Z,8.00
2019-05-18T00:28:37.183Z,12.00
2019-05-18T00:29:37.160Z,12.00
2019-05-18T00:30:37.138Z,12.00
2019-05-18T00:31:37.178Z,12.00
2019-05-18T00:32:37.274Z,12.00
2019-05-18T00:33:37.152Z,12.00
2019-05-18T00:34:37.111Z,12.00
2019-05-18T00:35:37.096Z,16.00
2019-05-18T00:36:37.087Z,12.00
2019-05-18T00:37:37.084Z,12.00
2019-05-18T00:38:37.087Z,16.00
2019-05-18T00:39:37.056Z,16.00
2019-05-18T00:40:37.025Z,16.00
2019-05-18T00:41:37.024Z,16.00
2019-05-18T00:42:37.034Z,16.00
2019-05-18T00:43:37.045Z,20.00
2019-05-18T00:44:37.026Z,20.00
2019-05-18T00:45:37.013Z,20.00
2019-05-18T00:46:36.975Z,24.00
2019-05-18T00:47:41.456Z,24.00
2019-05-18T00:48:37.977Z,28.00
2019-05-18T00:49:36.960Z,28.00
2019-05-18T00:50:36.926Z,32.00
2019-05-18T00:51:36.928Z,32.00
2019-05-18T00:52:36.944Z,36.00
2019-05-18T00:53:36.891Z,36.00
2019-05-18T00:54:48.296Z,36.00
2019-05-18T00:55:36.868Z,36.00
2019-05-18T00:56:36.872Z,44.00
2019-05-18T00:57:36.859Z,44.00
2019-05-18T00:58:36.836Z,48.00
2019-05-18T00:59:36.841Z,52.00
2019-05-18T01:00:36.833Z,56.00
2019-05-18T01:01:36.827Z,56.00
2019-05-18T01:02:36.814Z,60.00
2019-05-18T01:03:36.790Z,64.00
2019-05-18T01:04:36.787Z,68.00
2019-05-18T01:05:38.168Z,68.00
2019-05-18T01:06:36.777Z,76.00
2019-05-18T01:07:36.767Z,76.00
2019-05-18T01:08:36.761Z,84.00
2019-05-18T01:09:36.757Z,84.00
2019-05-18T01:10:36.740Z,88.00
2019-05-18T01:11:36.725Z,96.00
2019-05-18T01:12:36.717Z,100.00
2019-05-18T01:13:36.710Z,108.00
2019-05-18T01:14:36.707Z,108.00
2019-05-18T01:15:36.740Z,116.00
2019-05-18T01:16:36.706Z,116.00
2019-05-18T01:17:36.653Z,124.00
2019-05-18T01:18:36.656Z,132.00
2019-05-18T01:19:36.650Z,136.00
2019-05-18T01:20:36.626Z,140.00
2019-05-18T01:21:36.627Z,148.00
2019-05-18T01:22:36.626Z,156.00
2019-05-18T01:23:36.588Z,168.00
2019-05-18T01:24:36.583Z,172.00
2019-05-18T01:25:46.594Z,180.00
2019-05-18T01:26:36.553Z,184.00
2019-05-18T01:27:36.602Z,196.00
2019-05-18T01:28:36.532Z,204.00
2019-05-18T01:29:36.512Z,212.00
2019-05-18T01:30:36.548Z,220.00
2019-05-18T01:31:36.491Z,232.00
2019-05-18T01:32:36.515Z,236.00
2019-05-18T01:33:36.478Z,244.00
2019-05-18T01:34:36.497Z,256.00
2019-05-18T01:35:36.474Z,264.00
2019-05-18T01:36:36.464Z,272.00
2019-05-18T01:37:36.444Z,284.00
2019-05-18T01:38:36.429Z,292.00
2019-05-18T01:39:36.475Z,300.00
2019-05-18T01:40:36.421Z,308.00
2019-05-18T01:41:36.410Z,320.00
2019-05-18T01:42:36.426Z,332.00
2019-05-18T01:43:36.370Z,340.00
2019-05-18T01:44:36.435Z,352.00
2019-05-18T01:45:36.363Z,360.00
2019-05-18T01:46:36.370Z,372.00
2019-05-18T01:47:36.355Z,380.00
2019-05-18T01:48:36.323Z,392.00
2019-05-18T01:49:36.301Z,400.00
2019-05-18T01:50:36.348Z,412.00
2019-05-18T01:51:36.328Z,420.00
2019-05-18T01:52:36.288Z,432.00
2019-05-18T01:53:36.313Z,440.00
2019-05-18T01:54:36.248Z,452.00
2019-05-18T01:55:36.277Z,464.00
2019-05-18T01:56:46.977Z,476.00
2019-05-18T01:57:36.228Z,480.00
2019-05-18T01:58:36.275Z,492.00
2019-05-18T01:59:36.208Z,504.00
2019-05-18T02:00:36.201Z,516.00
2019-05-18T02:01:36.210Z,520.00
2019-05-18T02:02:36.184Z,532.00
2019-05-18T02:03:36.170Z,544.00
2019-05-18T02:04:36.156Z,552.00
2019-05-18T02:05:36.154Z,564.00
2019-05-18T02:06:36.144Z,576.00
2019-05-18T02:07:36.133Z,580.00
2019-05-18T02:08:36.139Z,592.00
2019-05-18T02:09:36.102Z,604.00
2019-05-18T02:10:36.105Z,612.00
2019-05-18T02:11:36.086Z,624.00
2019-05-18T02:12:36.055Z,632.00
2019-05-18T02:13:36.064Z,644.00
2019-05-18T02:14:36.046Z,652.00
2019-05-18T02:15:36.056Z,656.00
2019-05-18T02:16:36.035Z,668.00
2019-05-18T02:17:36.026Z,676.00
2019-05-18T02:18:36.010Z,688.00
2019-05-18T02:19:36.008Z,696.00
2019-05-18T02:20:35.993Z,704.00
2019-05-18T02:21:35.964Z,712.00
2019-05-18T02:22:35.973Z,724.00
2019-05-18T02:23:35.955Z,732.00
2019-05-18T02:24:35.943Z,744.00
2019-05-18T02:25:35.955Z,752.00
2019-05-18T02:26:35.934Z,760.00
2019-05-18T02:27:46.060Z,768.00
2019-05-18T02:28:35.903Z,780.00
2019-05-18T02:29:35.895Z,788.00
2019-05-18T02:30:35.870Z,796.00
2019-05-18T02:31:35.868Z,808.00
2019-05-18T02:32:35.872Z,816.00
2019-05-18T02:33:35.872Z,828.00
2019-05-18T02:34:35.856Z,836.00
2019-05-18T02:35:35.835Z,848.00
2019-05-18T02:36:35.842Z,860.00
2019-05-18T02:37:35.801Z,872.00
2019-05-18T02:38:35.793Z,884.00
2019-05-18T02:39:35.840Z,896.00
2019-05-18T02:40:35.793Z,908.00
2019-05-18T02:41:35.782Z,920.00
2019-05-18T02:42:35.754Z,932.00
2019-05-18T02:43:35.751Z,944.00
2019-05-18T02:44:35.736Z,956.00
2019-05-18T02:45:35.743Z,968.00
2019-05-18T02:46:35.720Z,980.00
2019-05-18T02:47:35.713Z,992.00
2019-05-18T02:48:48.576Z,1004.00
2019-05-18T02:49:36.711Z,1016.00
2019-05-18T02:50:35.659Z,1028.00
2019-05-18T02:51:35.671Z,1044.00
2019-05-18T02:52:35.666Z,1052.00
2019-05-18T02:53:35.644Z,1064.00
2019-05-18T02:54:35.658Z,1080.00
2019-05-18T02:55:35.681Z,1088.00
2019-05-18T02:56:35.627Z,1100.00
2019-05-18T02:57:35.629Z,1112.00
2019-05-18T02:58:46.375Z,1124.00
2019-05-18T02:59:35.585Z,1140.00
2019-05-18T03:00:35.573Z,1152.00
2019-05-18T03:01:35.577Z,1160.00
2019-05-18T03:02:35.552Z,1176.00
2019-05-18T03:03:35.547Z,1188.00
2019-05-18T03:04:35.539Z,1200.00
2019-05-18T03:05:35.558Z,1212.00
2019-05-18T03:06:35.514Z,1220.00
2019-05-18T03:07:35.503Z,1232.00
2019-05-18T03:08:35.505Z,1244.00
2019-05-18T03:09:35.475Z,1256.00
2019-05-18T03:10:35.464Z,1268.00
2019-05-18T03:11:35.464Z,1276.00
2019-05-18T03:12:35.443Z,1292.00
2019-05-18T03:13:35.433Z,1300.00
2019-05-18T03:14:35.414Z,1312.00
2019-05-18T03:15:35.403Z,1320.00
2019-05-18T03:16:35.447Z,1332.00
2019-05-18T03:17:35.433Z,1340.00
2019-05-18T03:18:35.401Z,1348.00
2019-05-18T03:19:35.387Z,1364.00
2019-05-18T03:20:35.362Z,1372.00
2019-05-18T03:21:35.370Z,1380.00
2019-05-18T03:22:35.342Z,1392.00
2019-05-18T03:23:35.352Z,1400.00
2019-05-18T03:24:35.302Z,1412.00
2019-05-18T03:25:35.303Z,1420.00
2019-05-18T03:26:35.284Z,1428.00
2019-05-18T03:27:35.305Z,1440.00
2019-05-18T03:28:35.282Z,1448.00
2019-05-18T03:29:47.431Z,1456.00
2019-05-18T03:30:35.249Z,1464.00
2019-05-18T03:31:35.253Z,1472.00
2019-05-18T03:32:35.251Z,1484.00
2019-05-18T03:33:35.222Z,1492.00
2019-05-18T03:34:35.201Z,1500.00
2019-05-18T03:35:35.227Z,1508.00
2019-05-18T03:36:35.205Z,1520.00
2019-05-18T03:37:35.194Z,1532.00
2019-05-18T03:38:35.194Z,1540.00
2019-05-18T03:39:35.173Z,1544.00
2019-05-18T03:40:35.150Z,1560.00
2019-05-18T03:41:35.161Z,1568.00
2019-05-18T03:42:35.129Z,1580.00
2019-05-18T03:43:35.172Z,1588.00
2019-05-18T03:44:35.096Z,1600.00
2019-05-18T03:45:35.100Z,1608.00
2019-05-18T03:46:35.095Z,1620.00
2019-05-18T03:47:35.138Z,1628.00
2019-05-18T03:48:35.079Z,1636.00
2019-05-18T03:49:35.047Z,1644.00
2019-05-18T03:50:35.098Z,1656.00
2019-05-18T03:51:35.058Z,1664.00
2019-05-18T03:52:35.057Z,1668.00
2019-05-18T03:53:35.009Z,1680.00
2019-05-18T03:54:35.013Z,1688.00
2019-05-18T03:55:34.999Z,1700.00
2019-05-18T03:56:35.019Z,1704.00
2019-05-18T03:57:34.967Z,1716.00
2019-05-18T03:58:34.994Z,1720.00
2019-05-18T03:59:34.946Z,1732.00
2019-05-18T04:00:45.588Z,1740.00
2019-05-18T04:01:34.919Z,1748.00
2019-05-18T04:02:34.908Z,1760.00
2019-05-18T04:03:34.902Z,1768.00
2019-05-18T04:04:34.902Z,1776.00
2019-05-18T04:05:34.884Z,1788.00
2019-05-18T04:06:34.893Z,1796.00
2019-05-18T04:07:34.885Z,1804.00
2019-05-18T04:08:34.853Z,1816.00
2019-05-18T04:09:34.838Z,1824.00
2019-05-18T04:10:34.852Z,1832.00
2019-05-18T04:11:34.839Z,1844.00
2019-05-18T04:12:34.852Z,1856.00
2019-05-18T04:13:34.848Z,1868.00
2019-05-18T04:14:34.788Z,1876.00
2019-05-18T04:15:34.771Z,1888.00
2019-05-18T04:16:34.761Z,1900.00
2019-05-18T04:17:34.758Z,1912.00
2019-05-18T04:18:34.766Z,1924.00
2019-05-18T04:19:45.498Z,1932.00
2019-05-18T04:20:35.723Z,1948.00
2019-05-18T04:21:34.710Z,1956.00
2019-05-18T04:22:34.702Z,1968.00
2019-05-18T04:23:34.717Z,1980.00
2019-05-18T04:24:34.675Z,1988.00
2019-05-18T04:25:34.676Z,2004.00
2019-05-18T04:26:34.650Z,2016.00
2019-05-18T04:27:34.655Z,2028.00
2019-05-18T04:28:34.640Z,2040.00
2019-05-18T04:29:34.615Z,2052.00
2019-05-18T04:30:34.620Z,2064.00
2019-05-18T04:31:44.738Z,2080.00
2019-05-18T04:32:34.589Z,2088.00
2019-05-18T04:33:34.605Z,2104.00
2019-05-18T04:34:34.560Z,2116.00
2019-05-18T04:35:34.550Z,2128.00
2019-05-18T04:36:34.536Z,2144.00
2019-05-18T04:37:34.575Z,2156.00
2019-05-18T04:38:34.552Z,2168.00
2019-05-18T04:39:34.526Z,2184.00
2019-05-18T04:40:34.510Z,2196.00
2019-05-18T04:41:34.496Z,2208.00
2019-05-18T04:42:34.498Z,2224.00
2019-05-18T04:43:34.465Z,2236.00
2019-05-18T04:44:34.488Z,2244.00
2019-05-18T04:45:34.453Z,2260.00
2019-05-18T04:46:34.434Z,2272.00
2019-05-18T04:47:34.434Z,2244.00
2019-05-18T04:48:34.417Z,2292.00
2019-05-18T04:49:34.418Z,2304.00
2019-05-18T04:50:34.417Z,2320.00
2019-05-18T04:51:34.387Z,2332.00
2019-05-18T04:52:34.389Z,2344.00
2019-05-18T04:53:34.365Z,2356.00
2019-05-18T04:54:34.362Z,2372.00
2019-05-18T04:55:34.383Z,2380.00
2019-05-18T04:56:34.398Z,2396.00
2019-05-18T04:57:34.323Z,2408.00
2019-05-18T04:58:34.323Z,2424.00
2019-05-18T04:59:34.297Z,2436.00
2019-05-18T05:00:34.301Z,2452.00
2019-05-18T05:01:34.313Z,2464.00
2019-05-18T05:02:46.414Z,2480.00
2019-05-18T05:03:34.261Z,2492.00
2019-05-18T05:04:34.244Z,2504.00
2019-05-18T05:05:34.223Z,2520.00
2019-05-18T05:06:34.245Z,2532.00
2019-05-18T05:07:34.242Z,2544.00
2019-05-18T05:08:34.191Z,2556.00
2019-05-18T05:09:34.183Z,2572.00
2019-05-18T05:10:34.174Z,2584.00
2019-05-18T05:11:34.151Z,2596.00
2019-05-18T05:12:34.151Z,2612.00
2019-05-18T05:13:34.140Z,2624.00
2019-05-18T05:14:34.142Z,2636.00
2019-05-18T05:15:34.112Z,2652.00
2019-05-18T05:16:34.172Z,2664.00
2019-05-18T05:17:34.089Z,2676.00
2019-05-18T05:18:34.101Z,2696.00
2019-05-18T05:19:34.098Z,2704.00
2019-05-18T05:20:34.110Z,2720.00
2019-05-18T05:21:34.053Z,2732.00
2019-05-18T05:22:34.103Z,2744.00
2019-05-18T05:23:34.059Z,2756.00
2019-05-18T05:24:34.009Z,2768.00
2019-05-18T05:25:34.009Z,2780.00
2019-05-18T05:26:34.050Z,2792.00
2019-05-18T05:27:33.988Z,2804.00
2019-05-18T05:28:34.014Z,2816.00
2019-05-18T05:29:34.024Z,2824.00
2019-05-18T05:30:33.972Z,2836.00
2019-05-18T05:31:33.938Z,2848.00
2019-05-18T05:32:33.936Z,2860.00
2019-05-18T05:33:44.648Z,2872.00
2019-05-18T05:34:33.918Z,2880.00
2019-05-18T05:35:33.911Z,2892.00
2019-05-18T05:36:33.878Z,2896.00
2019-05-18T05:37:33.880Z,2908.00
2019-05-18T05:38:33.878Z,2920.00
2019-05-18T05:39:33.877Z,2932.00
2019-05-18T05:40:33.881Z,2944.00
2019-05-18T05:41:33.849Z,2952.00
2019-05-18T05:42:33.835Z,2960.00
2019-05-18T05:43:33.822Z,2968.00
2019-05-18T05:44:33.844Z,2984.00
2019-05-18T05:45:33.809Z,2992.00
2019-05-18T05:46:33.795Z,3000.00
2019-05-18T05:47:33.777Z,3004.00
2019-05-18T05:48:33.768Z,3016.00
2019-05-18T05:49:33.788Z,3028.00
2019-05-18T05:50:36.369Z,3036.00
2019-05-18T05:51:33.747Z,3048.00
2019-05-18T05:52:33.739Z,3052.00
2019-05-18T05:53:33.709Z,3060.00
2019-05-18T05:54:33.735Z,3072.00
2019-05-18T05:55:33.696Z,3080.00
2019-05-18T05:56:33.709Z,3088.00
2019-05-18T05:57:33.678Z,3096.00
2019-05-18T05:58:33.655Z,3108.00
2019-05-18T05:59:33.668Z,3120.00
2019-05-18T06:00:33.667Z,3124.00
2019-05-18T06:01:33.632Z,3136.00
2019-05-18T06:02:33.609Z,3144.00
2019-05-18T06:03:33.615Z,3152.00
2019-05-18T06:04:43.727Z,3164.00
2019-05-18T06:05:33.577Z,3172.00
2019-05-18T06:06:33.578Z,3184.00
2019-05-18T06:07:33.570Z,3196.00
2019-05-18T06:08:33.569Z,3200.00
2019-05-18T06:09:33.538Z,3212.00
2019-05-18T06:10:33.568Z,3224.00
2019-05-18T06:11:33.529Z,3232.00
2019-05-18T06:12:33.516Z,3240.00
2019-05-18T06:13:33.512Z,3252.00
2019-05-18T06:14:33.489Z,3256.00
2019-05-18T06:15:33.477Z,3268.00
2019-05-18T06:16:33.515Z,3272.00
2019-05-18T06:17:33.487Z,3284.00
2019-05-18T06:18:33.470Z,3292.00
2019-05-18T06:19:33.436Z,3304.00
2019-05-18T06:20:33.428Z,3312.00
2019-05-18T06:21:33.439Z,3320.00
2019-05-18T06:22:33.420Z,3328.00
2019-05-18T06:23:33.395Z,3336.00
2019-05-18T06:24:33.403Z,3348.00
2019-05-18T06:25:34.492Z,3360.00
2019-05-18T06:26:33.400Z,3368.00
2019-05-18T06:27:33.364Z,3376.00
2019-05-18T06:28:33.346Z,3384.00
2019-05-18T06:29:33.345Z,3396.00
2019-05-18T06:30:33.322Z,3400.00
2019-05-18T06:31:33.320Z,3408.00
2019-05-18T06:32:33.306Z,3420.00
2019-05-18T06:33:33.296Z,3428.00
2019-05-18T06:34:33.289Z,3436.00
2019-05-18T06:35:43.465Z,3444.00
2019-05-18T06:36:33.261Z,3452.00
2019-05-18T06:37:33.251Z,3464.00
2019-05-18T06:38:33.266Z,3472.00
2019-05-18T06:39:33.216Z,3480.00
2019-05-18T06:40:33.234Z,3488.00
2019-05-18T06:41:33.208Z,3496.00
2019-05-18T06:42:33.211Z,3508.00
2019-05-18T06:43:33.192Z,3516.00
2019-05-18T06:44:33.178Z,3520.00
2019-05-18T06:45:33.186Z,3536.00
2019-05-18T06:46:33.150Z,3544.00
2019-05-18T06:47:33.169Z,3556.00
2019-05-18T06:48:33.126Z,3560.00
2019-05-18T06:49:33.166Z,3564.00
2019-05-18T06:50:33.106Z,3572.00
2019-05-18T06:51:33.100Z,3580.00
2019-05-18T06:52:33.098Z,3592.00
2019-05-18T06:53:33.078Z,3600.00
2019-05-18T06:54:33.056Z,3600.00
2019-05-18T06:55:33.069Z,3592.00
2019-05-18T06:56:33.036Z,3604.00
2019-05-18T06:57:33.027Z,3616.00
2019-05-18T06:58:33.027Z,3624.00
2019-05-18T06:59:33.009Z,3636.00
2019-05-18T07:00:33.038Z,3652.00
2019-05-18T07:01:33.005Z,3648.00
2019-05-18T07:02:32.987Z,3652.00
2019-05-18T07:03:32.987Z,3668.00
2019-05-18T07:04:32.974Z,3676.00
2019-05-18T07:05:32.950Z,3680.00
2019-05-18T07:06:45.626Z,3688.00
2019-05-18T07:07:32.938Z,3696.00
2019-05-18T07:08:32.905Z,3704.00
2019-05-18T07:09:32.896Z,3716.00
2019-05-18T07:10:32.885Z,3720.00
2019-05-18T07:11:32.875Z,3720.00
2019-05-18T07:12:32.896Z,3752.00
2019-05-18T07:13:32.893Z,3764.00
2019-05-18T07:14:32.865Z,3772.00
2019-05-18T07:15:32.837Z,3780.00
2019-05-18T07:16:32.835Z,3792.00
2019-05-18T07:17:34.644Z,3788.00
2019-05-18T07:18:32.815Z,3800.00
2019-05-18T07:19:32.804Z,3808.00
2019-05-18T07:20:32.775Z,3820.00
2019-05-18T07:21:32.785Z,3828.00
2019-05-18T07:22:32.770Z,3832.00
2019-05-18T07:23:32.806Z,3844.00
2019-05-18T07:24:32.786Z,3848.00
2019-05-18T07:25:32.729Z,3856.00
2019-05-18T07:26:32.728Z,3860.00
2019-05-18T07:27:32.709Z,3868.00
2019-05-18T07:28:32.721Z,3880.00
2019-05-18T07:29:32.729Z,3888.00
2019-05-18T07:30:32.687Z,3892.00
2019-05-18T07:31:32.677Z,3904.00
2019-05-18T07:32:32.655Z,3908.00
2019-05-18T07:33:32.674Z,3916.00
2019-05-18T07:34:32.677Z,3928.00
2019-05-18T07:35:32.644Z,3932.00
2019-05-18T07:36:32.614Z,3936.00
2019-05-18T07:37:42.792Z,3948.00
2019-05-18T07:38:32.595Z,3952.00
2019-05-18T07:39:36.005Z,3968.00
2019-05-18T07:40:32.584Z,3972.00
2019-05-18T07:41:45.819Z,3976.00
2019-05-18T07:42:33.566Z,3992.00
2019-05-18T07:43:32.556Z,4000.00
2019-05-18T07:44:32.537Z,4004.00
2019-05-18T07:45:32.515Z,4012.00
2019-05-18T07:46:32.556Z,4020.00
2019-05-18T07:47:32.509Z,4028.00
2019-05-18T07:48:32.508Z,4036.00
2019-05-18T07:49:32.516Z,4040.00
2019-05-18T07:50:32.467Z,4048.00
2019-05-18T07:51:36.939Z,4056.00
2019-05-18T07:52:33.425Z,4064.00
2019-05-18T07:53:32.459Z,4072.00
2019-05-18T07:54:32.456Z,4080.00
2019-05-18T07:55:32.426Z,4088.00
2019-05-18T07:56:32.417Z,4092.00
2019-05-18T07:57:32.409Z,4076.00
2019-05-18T07:58:32.393Z,4088.00
2019-05-18T07:59:32.387Z,4120.00
2019-05-18T08:00:32.365Z,4124.00
2019-05-18T08:01:32.376Z,4136.00
2019-05-18T08:02:32.336Z,4140.00
2019-05-18T08:03:32.339Z,4148.00
2019-05-18T08:04:32.331Z,4152.00
2019-05-18T08:05:32.315Z,4148.00
2019-05-18T08:06:32.286Z,4164.00
2019-05-18T08:07:32.288Z,4176.00
2019-05-18T08:08:42.547Z,4180.00
2019-05-18T08:09:32.264Z,4188.00
2019-05-18T08:10:32.294Z,4200.00
2019-05-18T08:11:32.238Z,4204.00
2019-05-18T08:12:32.222Z,4208.00
2019-05-18T08:13:32.215Z,4220.00
2019-05-18T08:14:32.225Z,4228.00
2019-05-18T08:15:32.215Z,4236.00
2019-05-18T08:16:32.206Z,4240.00
2019-05-18T08:17:32.200Z,4240.00
2019-05-18T08:18:32.175Z,4264.00
2019-05-18T08:19:32.180Z,4264.00
2019-05-18T08:20:32.174Z,4272.00
2019-05-18T08:21:32.135Z,4276.00
2019-05-18T08:22:32.148Z,4288.00
2019-05-18T08:23:32.118Z,4296.00
2019-05-18T08:24:32.115Z,4296.00
2019-05-18T08:25:32.103Z,4304.00
2019-05-18T08:26:32.198Z,4312.00
2019-05-18T08:27:32.092Z,4312.00
2019-05-18T08:28:32.069Z,4280.00
2019-05-18T08:29:32.067Z,4336.00
2019-05-18T08:30:32.043Z,4348.00
2019-05-18T08:31:32.033Z,4348.00
2019-05-18T08:32:32.030Z,4352.00
2019-05-18T08:33:32.004Z,4360.00
2019-05-18T08:34:32.006Z,4368.00
2019-05-18T08:35:31.984Z,4376.00
2019-05-18T08:36:31.976Z,4380.00
2019-05-18T08:37:32.037Z,4356.00
2019-05-18T08:38:31.975Z,4396.00
2019-05-18T08:39:42.019Z,4408.00
2019-05-18T08:40:31.931Z,4420.00
2019-05-18T08:41:31.938Z,4420.00
2019-05-18T08:42:31.928Z,4428.00
2019-05-18T08:43:31.914Z,4440.00
2019-05-18T08:44:31.938Z,4444.00
2019-05-18T08:45:31.887Z,4456.00
2019-05-18T08:46:31.866Z,4460.00
2019-05-18T08:47:31.868Z,4464.00
2019-05-18T08:48:31.873Z,4476.00
2019-05-18T08:49:31.839Z,4480.00
2019-05-18T08:50:31.869Z,4484.00
2019-05-18T08:51:31.827Z,4500.00
2019-05-18T08:52:31.806Z,4504.00
2019-05-18T08:53:31.802Z,4508.00
2019-05-18T08:54:31.857Z,4524.00
2019-05-18T08:55:31.777Z,4528.00
2019-05-18T08:56:31.767Z,4540.00
2019-05-18T08:57:31.749Z,4548.00
2019-05-18T08:58:31.769Z,4556.00
2019-05-18T08:59:31.747Z,4560.00
2019-05-18T09:00:31.787Z,4572.00
2019-05-18T09:01:31.725Z,4572.00
2019-05-18T09:02:31.705Z,4580.00
2019-05-18T09:03:31.685Z,4592.00
2019-05-18T09:04:31.685Z,4600.00
2019-05-18T09:05:31.767Z,4608.00
2019-05-18T09:06:31.677Z,4616.00
2019-05-18T09:07:31.647Z,4620.00
2019-05-18T09:08:31.636Z,4624.00
2019-05-18T09:09:31.676Z,4636.00
2019-05-18T09:10:41.879Z,4640.00
2019-05-18T09:11:31.614Z,4648.00
2019-05-18T09:12:31.613Z,4652.00
2019-05-18T09:13:31.601Z,4668.00
2019-05-18T09:14:31.572Z,4664.00
2019-05-18T09:15:31.571Z,4680.00
2019-05-18T09:16:31.571Z,4684.00
2019-05-18T09:17:31.550Z,4688.00
2019-05-18T09:18:31.551Z,4692.00
2019-05-18T09:19:31.541Z,4700.00
2019-05-18T09:20:31.567Z,4688.00
2019-05-18T09:21:31.513Z,4696.00
2019-05-18T09:22:31.542Z,4664.00
2019-05-18T09:23:31.551Z,4700.00
2019-05-18T09:24:31.484Z,4704.00
2019-05-18T09:25:31.462Z,4720.00
2019-05-18T09:26:31.466Z,4732.00
2019-05-18T09:27:31.440Z,4740.00
2019-05-18T09:28:31.444Z,4752.00
2019-05-18T09:29:31.423Z,4756.00
2019-05-18T09:30:31.414Z,4776.00
2019-05-18T09:31:31.411Z,4772.00
2019-05-18T09:32:31.422Z,4776.00
2019-05-18T09:33:31.409Z,4692.00
2019-05-18T09:34:31.392Z,4768.00
2019-05-18T09:35:31.359Z,4776.00
2019-05-18T09:36:31.341Z,4788.00
2019-05-18T09:37:31.331Z,4796.00
2019-05-18T09:38:33.309Z,4844.00
2019-05-18T09:39:31.337Z,4852.00
2019-05-18T09:40:31.320Z,4868.00
2019-05-18T09:41:41.259Z,4876.00
2019-05-18T09:42:31.290Z,4888.00
2019-05-18T09:43:31.266Z,4888.00
2019-05-18T09:44:31.280Z,4904.00
2019-05-18T09:45:31.244Z,4920.00
2019-05-18T09:46:31.248Z,4932.00
2019-05-18T09:47:31.232Z,4936.00
2019-05-18T09:48:31.227Z,4948.00
2019-05-18T09:49:31.233Z,4964.00
2019-05-18T09:50:31.217Z,4976.00
2019-05-18T09:51:31.204Z,4980.00
2019-05-18T09:52:44.070Z,4996.00
2019-05-18T09:54:31.225Z,5012.00
2019-05-18T09:55:31.149Z,5024.00
2019-05-18T09:56:31.157Z,5036.00
2019-05-18T09:57:31.131Z,5048.00
2019-05-18T09:58:31.119Z,5056.00
2019-05-18T09:59:31.107Z,5064.00
2019-05-18T10:00:38.264Z,5072.00
2019-05-18T10:02:31.067Z,5088.00
2019-05-18T10:03:31.066Z,5104.00
2019-05-18T10:04:31.083Z,5112.00
2019-05-18T10:05:31.078Z,5120.00
2019-05-18T10:06:31.545Z,5128.00
2019-05-18T10:07:31.017Z,5136.00
2019-05-18T10:08:31.015Z,5144.00
2019-05-18T10:09:38.887Z,5160.00
2019-05-18T10:11:38.239Z,5176.00
2019-05-18T10:13:43.716Z,5204.00
2019-05-18T10:14:43.697Z,5212.00
2019-05-18T10:15:43.689Z,5212.00
2019-05-18T10:16:43.718Z,5244.00
2019-05-18T10:18:43.656Z,5260.00
2019-05-18T10:19:43.635Z,5268.00
2019-05-18T10:20:43.636Z,5268.00
2019-05-18T10:21:43.630Z,5276.00
2019-05-18T10:22:55.077Z,5288.00
2019-05-18T10:23:44.617Z,5296.00
2019-05-18T10:24:43.586Z,5304.00
2019-05-18T10:25:43.566Z,5308.00
2019-05-18T10:26:43.577Z,5324.00
2019-05-18T10:27:43.640Z,5316.00
2019-05-18T10:28:43.567Z,5332.00
2019-05-18T10:29:46.515Z,5332.00
2019-05-18T10:30:43.589Z,5336.00
2019-05-18T10:31:43.535Z,5352.00
2019-05-18T10:32:43.511Z,5352.00
2019-05-18T10:33:43.538Z,5348.00
2019-05-18T10:34:43.512Z,5352.00
2019-05-18T10:35:43.987Z,5368.00
2019-05-18T10:36:43.468Z,5376.00
2019-05-18T10:37:43.451Z,5372.00
2019-05-18T10:38:43.437Z,5384.00
2019-05-18T10:39:43.449Z,5396.00
2019-05-18T10:40:43.419Z,5396.00
2019-05-18T10:41:43.405Z,5404.00
2019-05-18T10:42:43.426Z,5404.00
2019-05-18T10:43:50.574Z,5408.00
2019-05-18T10:44:43.375Z,5408.00
2019-05-18T10:45:45.102Z,5416.00
2019-05-18T10:46:43.354Z,5424.00
2019-05-18T10:47:43.365Z,5432.00
2019-05-18T10:48:43.345Z,5436.00
2019-05-18T10:49:43.366Z,5440.00
2019-05-18T10:50:43.310Z,5456.00
2019-05-18T10:52:43.291Z,5456.00
2019-05-18T10:53:43.336Z,5472.00
2019-05-18T10:54:43.283Z,5476.00
2019-05-18T10:55:43.265Z,5480.00
2019-05-18T10:56:43.251Z,5484.00
2019-05-18T10:57:43.248Z,5484.00
2019-05-18T10:58:43.223Z,5488.00
2019-05-18T10:59:43.222Z,5500.00
2019-05-18T11:00:43.225Z,5500.00
2019-05-18T11:01:44.028Z,5504.00
2019-05-18T11:02:43.205Z,5512.00
2019-05-18T11:04:43.164Z,5520.00
2019-05-18T11:05:43.150Z,5524.00
2019-05-18T11:06:43.154Z,5524.00
2019-05-18T11:08:43.108Z,5540.00
2019-05-18T11:09:43.103Z,5536.00
2019-05-18T11:10:43.105Z,5544.00
2019-05-18T11:11:43.132Z,5552.00
2019-05-18T11:12:43.083Z,5556.00
2019-05-18T11:13:43.069Z,5560.00
2019-05-18T11:14:55.426Z,5564.00
2019-05-18T11:15:43.065Z,5572.00
2019-05-18T11:16:43.033Z,5576.00
2019-05-18T11:17:43.042Z,5576.00
2019-05-18T11:18:43.074Z,5580.00
2019-05-18T11:19:42.995Z,5580.00
2019-05-18T11:20:42.991Z,5580.00
2019-05-18T11:21:42.993Z,5584.00
2019-05-18T11:22:42.991Z,5580.00
2019-05-18T11:23:46.021Z,5588.00
2019-05-18T11:24:42.943Z,5592.00
2019-05-18T11:25:42.962Z,5596.00
2019-05-18T11:26:42.933Z,5600.00
2019-05-18T11:27:42.933Z,5604.00
2019-05-18T11:28:42.943Z,5608.00
2019-05-18T11:29:42.932Z,5608.00
2019-05-18T11:30:42.884Z,5616.00
2019-05-18T11:31:42.875Z,5620.00
2019-05-18T11:32:42.873Z,5628.00
2019-05-18T11:33:42.881Z,5616.00
2019-05-18T11:35:42.860Z,5624.00
2019-05-18T11:36:42.813Z,5616.00
2019-05-18T11:37:42.843Z,5620.00
2019-05-18T11:39:42.836Z,5636.00
2019-05-18T11:40:42.791Z,5628.00
2019-05-18T11:41:43.583Z,5628.00
2019-05-18T11:42:42.755Z,5636.00
2019-05-18T11:43:42.766Z,5628.00
2019-05-18T11:44:42.742Z,5628.00
2019-05-18T11:46:42.717Z,5632.00
2019-05-18T11:47:42.716Z,5628.00
2019-05-18T11:48:42.750Z,5624.00
2019-05-18T11:49:42.688Z,5624.00
2019-05-18T11:50:42.674Z,5620.00
2019-05-18T11:51:42.661Z,5624.00
2019-05-18T11:52:42.659Z,5620.00
2019-05-18T11:53:42.645Z,5612.00
2019-05-18T11:54:42.666Z,5616.00
2019-05-18T11:55:42.628Z,5628.00
2019-05-18T11:56:42.616Z,5620.00
2019-05-18T11:57:42.620Z,5628.00
2019-05-18T11:58:42.620Z,5604.00
2019-05-18T11:59:42.595Z,5616.00
2019-05-18T12:00:42.605Z,5608.00
2019-05-18T12:01:42.569Z,5600.00
2019-05-18T12:02:42.559Z,5608.00
2019-05-18T12:03:42.562Z,5604.00
2019-05-18T12:04:43.016Z,5596.00
2019-05-18T12:05:42.523Z,5604.00
2019-05-18T12:06:42.510Z,5592.00
2019-05-18T12:07:42.504Z,5580.00
2019-05-18T12:08:42.518Z,5584.00
2019-05-18T12:09:42.483Z,5576.00
2019-05-18T12:10:42.466Z,5584.00
2019-05-18T12:11:42.458Z,5572.00
2019-05-18T12:12:42.440Z,5572.00
2019-05-18T12:13:42.437Z,5568.00
2019-05-18T12:14:42.427Z,5548.00
2019-05-18T12:15:42.427Z,5544.00
2019-05-18T12:16:53.524Z,5540.00
2019-05-18T12:17:42.403Z,5540.00
2019-05-18T12:18:42.371Z,5524.00
2019-05-18T12:19:42.383Z,5512.00
2019-05-18T12:20:42.351Z,5504.00
2019-05-18T12:21:42.420Z,5500.00
2019-05-18T12:22:42.331Z,5488.00
2019-05-18T12:23:42.338Z,5496.00
2019-05-18T12:24:42.311Z,5464.00